This is the latest recevied weather packets stored in our database for station/object 4S6DRJ-13. If no packets are shown the sender has not sent any weather packets the latest 10 day(s).
| Time | Temp. | Humidity | Pressure | Rain* | Wind** | Luminosity | Snow |
|---|---|---|---|---|---|---|---|
| 1787805219 | 30° C | 77% | 1011.2 hPa | 0 mm | 2.24 m/s, 198° | 244 W/m² | - |
| 1787805160 | 30.56° C | 76% | 1011.3 hPa | 0 mm | 3.13 m/s, 206° | 249 W/m² | - |
| 1787805097 | 30.56° C | 76% | 1011.3 hPa | 0 mm | 2.68 m/s, 206° | 287 W/m² | - |
| 1787805036 | 30° C | 76% | 1011.2 hPa | 0 mm | 1.79 m/s, 243° | 487 W/m² | - |
| 1787804975 | 30° C | 77% | 1011.3 hPa | 0 mm | 0.45 m/s, 211° | 609 W/m² | - |
| 1787804914 | 30° C | 77% | 1011.3 hPa | 0 mm | 2.24 m/s, 223° | 838 W/m² | - |
| 1787804853 | 30° C | 77% | 1011.5 hPa | 0 mm | 2.68 m/s, 228° | 1105 W/m² | - |
| 1787804792 | 30° C | 78% | 1011.6 hPa | 0 mm | 1.79 m/s, 218° | 1118 W/m² | - |
| 1787804731 | 30° C | 78% | 1011.4 hPa | 0 mm | 2.24 m/s, 356° | 1120 W/m² | - |
| 1787804670 | 30° C | 78% | 1011.2 hPa | 0 mm | 1.79 m/s, 264° | 464 W/m² | - |
| 1787804609 | 30° C | 78% | 1011.3 hPa | 0 mm | 3.13 m/s, 295° | 1114 W/m² | - |
| 1787804548 | 30° C | 78% | 1011.2 hPa | 0 mm | 1.79 m/s, 87° | 1114 W/m² | - |
| 1787804487 | 30° C | 78% | 1011.4 hPa | 0 mm | 1.79 m/s, 234° | 1118 W/m² | - |
| 1787804427 | 30° C | 78% | 1011.2 hPa | 0 mm | 2.68 m/s, 235° | 1100 W/m² | - |
| 1787804366 | 29.44° C | 79% | 1011.2 hPa | 0 mm | 2.68 m/s, 239° | 362 W/m² | - |
| 1787804305 | 29.44° C | 79% | 1011.1 hPa | 0 mm | 1.79 m/s, 232° | 1105 W/m² | - |
| 1787804244 | 29.44° C | 78% | 1011.2 hPa | 0 mm | 2.24 m/s, 236° | 446 W/m² | - |
| 1787804183 | 30° C | 78% | 1011.4 hPa | 0 mm | 3.58 m/s, 244° | 985 W/m² | - |
| 1787804122 | 30° C | 78% | 1011.2 hPa | 0 mm | 2.24 m/s, 271° | 648 W/m² | - |
| 1787804060 | 29.44° C | 78% | 1011.5 hPa | 0 mm | 1.79 m/s, 289° | 1106 W/m² | - |
| 1787803999 | 29.44° C | 79% | 1011.3 hPa | 0 mm | 1.79 m/s, 190° | 497 W/m² | - |
| 1787803939 | 29.44° C | 79% | 1011.2 hPa | 0 mm | 1.34 m/s, 280° | 489 W/m² | - |
| 1787803878 | 29.44° C | 79% | 1011.4 hPa | 0 mm | 0.89 m/s, 189° | 892 W/m² | - |
| 1787803817 | 29.44° C | 78% | 1011.2 hPa | 0 mm | 1.34 m/s, 239° | 355 W/m² | - |
| 1787803756 | 30° C | 78% | 1011.4 hPa | 0 mm | 1.79 m/s, 151° | 791 W/m² | - |
* Rain latest hour (hover to see other rain measurements)
** Current wind speed in m/s (hover to see current wind gust speed)